Ayr Dpi Research Station, Queensland

5:37 AM AEST on October 22, 2014 (GMT +1000)
On The Edge of The sugar cane in Ayr, Qld | Change Station
CLOSE
Current Station
Personal Weather Station
Location: Ayr, QLD
Elevation: 39 ft
Nearby Weather Stations

Elev 39 ft 19.58 °S, 147.42 °E | Updated 1 second ago

Rain
Rain
67.5 °F
Feels Like 67.5 °F
N
4.0
Wind Variable Wind from SSW
Gusts 7.0 mph

Today
High -- | Low -- °F
--% Chance of Precip.
Yesterday
High -- | Low -- °F
Precip. -- in
5:35 AM 6:14 PM
Waning Crescent, 4% visible
Pressure 30.09 in
Visibility 6.2 miles
Clouds Scattered Clouds 3600 ft
Scattered Clouds 4600 ft
Overcast 6900 ft
Dew Point 65 °F
Humidity 92%
Rainfall 0.07 in
Snow Depth Not available.
UV 0 out of 12
Pollen Not available.
Air Quality Not available.
Flu Activity Not available.
METAR YBTL 211900Z AUTO 16006KT 9999 // SCT036 SCT046 OVC069 20/18 Q1019

More Conditions Fewer Conditions

Pressure 30.09 in
Visibility 6.2 miles
Clouds Scattered Clouds 3600 ft
Scattered Clouds 4600 ft
Overcast 6900 ft
Dew Point 65 °F
Humidity 92%
Rainfall 0.07 in
Snow Depth Not available.
UV 0 out of 12
Pollen Not available.
Air Quality Not available.
Flu Activity Not available.
METAR YBTL 211900Z AUTO 16006KT 9999 // SCT036 SCT046 OVC069 20/18 Q1019

More Conditions Fewer Conditions

10-Day Weather Forecast

Almanac

Astronomy

Oct. 22, 2014 Rise Set
Actual Time 5:35 AM AEST 6:14 PM AEST
Civil Twilight 5:13 AM AEST 6:37 PM AEST
Nautical Twilight 4:46 AM AEST 7:03 PM AEST
Astronomical Twilight 4:20 AM AEST 7:30 PM AEST
Moon 4:17 AM AEST (10/22) 4:50 PM AEST (10/22)
Length of Visible Light 13h 23m
Length of Day
12h 38m
Tomorrow will be 1m 4s longer.
Waning Crescent, 4% of the Moon is Illuminated
Oct 21
Waning Crescent
Oct 23
New
Oct 30
First Quarter
Nov 6
Full
Nov 14
Last Quarter

Yesterday's Extremes

Country Highs Country Lows

Community

WunderPhotos

Upload Photos

1,763,755 photos uploaded!

WunderBlogs® & News

Nearby

Snow Depth

Not available.

Earthquake Activity

City Distance Mag. Time & Date
No recent earthquake activity has been reported nearby.
Minimum magnitude displayed is 2.5.

Coastal Water Temperatures

Place Temperature
No Stations Reporting

Nearby Weather Stations